| time (UTC) | temp F | wind direction | speed knots | gust knots | rain 1hr in | rain 24hr in | rain mn in | humidity % | barometer mb |
| 20260507213505 | 44 | 176 | 0.0 | 0.9 | 0.00 | 0.00 | 0.00 | 93 | 962.9 |
| 20260507213003 | 44 | 193 | 0.0 | 1.7 | 0.00 | 0.00 | 0.00 | 93 | 962.8 |
| 20260507212503 | 45 | 193 | 0.0 | 1.7 | 0.00 | 0.00 | 0.00 | 93 | 962.9 |
| 20260507212005 | 45 | 173 | 0.0 | 0.9 | 0.00 | 0.00 | 0.00 | 93 | 962.8 |
| 20260507211503 | 45 | 173 | 0.0 | 0.9 | 0.00 | 0.00 | 0.00 | 92 | 962.8 |
| 20260507211005 | 45 | 0 | 0.0 | 0.0 | 0.00 | 0.00 | 0.00 | 92 | 962.9 |
| 20260507210503 | 45 | 107 | 0.0 | 0.9 | 0.00 | 0.00 | 0.00 | 92 | 962.6 |
| 20260507205505 | 46 | 194 | 0.0 | 1.7 | 0.00 | 0.00 | 0.00 | 92 | 962.7 |
| 20260507205003 | 46 | 198 | 0.0 | 1.7 | 0.00 | 0.00 | 0.00 | 91 | 962.5 |
| 20260507204505 | 46 | 204 | 0.0 | 1.7 | 0.00 | 0.00 | 0.00 | 91 | 962.4 |
| 20260507204214 | 46 | 203 | 0.0 | 0.9 | 0.00 | 0.00 | 0.00 | 91 | 962.6 |
| 20260507203503 | 46 | 0 | 0.0 | 0.0 | 0.00 | 0.00 | 0.00 | 92 | 962.6 |
| 20260507203005 | 46 | 0 | 0.0 | 0.0 | 0.00 | 0.00 | 0.00 | 91 | 962.5 |
| 20260507202503 | 47 | 0 | 0.0 | 0.0 | 0.00 | 0.00 | 0.00 | 91 | 962.3 |
| 20260507202214 | 47 | 0 | 0.0 | 0.0 | 0.00 | 0.00 | 0.00 | 91 | 962.3 |
| 20260507201715 | 47 | 0 | 0.0 | 0.0 | 0.00 | 0.00 | 0.00 | 91 | 962.1 |
| 20260507201003 | 47 | 0 | 0.0 | 0.0 | 0.00 | 0.00 | 0.00 | 90 | 962.2 |
| 20260507200504 | 48 | 0 | 0.0 | 0.0 | 0.00 | 0.00 | 0.00 | 90 | 962.3 |
| 20260507195715 | 48 | 0 | 0.0 | 0.0 | 0.00 | 0.00 | 0.00 | 90 | 962.3 |
| 20260507195004 | 48 | 0 | 0.0 | 0.0 | 0.00 | 0.00 | 0.00 | 90 | 961.9 |
| 20260507194713 | 48 | 0 | 0.0 | 0.0 | 0.00 | 0.00 | 0.00 | 90 | 962.0 |
| 20260507194005 | 49 | 0 | 0.0 | 0.0 | 0.00 | 0.00 | 0.00 | 90 | 961.8 |
| 20260507193503 | 49 | 0 | 0.0 | 0.0 | 0.00 | 0.00 | 0.00 | 90 | 961.9 |
| 20260507193005 | 49 | 0 | 0.0 | 0.0 | 0.00 | 0.00 | 0.00 | 89 | 961.7 |
| 20260507192503 | 50 | 0 | 0.0 | 0.0 | 0.00 | 0.00 | 0.00 | 88 | 961.5 |
| 20260507192005 | 50 | 0 | 0.0 | 0.0 | 0.00 | 0.00 | 0.00 | 89 | 961.4 |
| 20260507191505 | 50 | 0 | 0.0 | 0.0 | 0.00 | 0.00 | 0.00 | 89 | 961.6 |
| 20260507191003 | 51 | 0 | 0.0 | 0.0 | 0.00 | 0.02 | 0.00 | 88 | 961.4 |
| 20260507190504 | 51 | 206 | 0.0 | 1.7 | 0.00 | 0.07 | 0.00 | 87 | 961.2 |
| 20260507185713 | 52 | 193 | 0.0 | 1.7 | 0.00 | 0.07 | 0.00 | 86 | 960.9 |
| 20260507185005 | 53 | 203 | 0.0 | 2.6 | 0.00 | 0.08 | 0.00 | 84 | 960.9 |
| 20260507184503 | 53 | 206 | 0.0 | 0.9 | 0.00 | 0.08 | 0.00 | 84 | 960.6 |
| 20260507184214 | 53 | 211 | 0.0 | 0.9 | 0.00 | 0.08 | 0.00 | 83 | 960.6 |
| 20260507183505 | 54 | 203 | 0.9 | 1.7 | 0.00 | 0.08 | 0.00 | 82 | 960.6 |
| 20260507183003 | 55 | 198 | 0.9 | 2.6 | 0.00 | 0.11 | 0.00 | 78 | 960.6 |
| 20260507182503 | 55 | 200 | 0.0 | 2.6 | 0.00 | 0.20 | 0.00 | 75 | 960.6 |
| 20260507182005 | 58 | 136 | 0.0 | 2.6 | 0.00 | 0.21 | 0.00 | 73 | 960.2 |
| 20260507181503 | 58 | 19 | 0.9 | 7.0 | 0.00 | 0.22 | 0.00 | 62 | 960.3 |
| 20260507181215 | 59 | 15 | 0.9 | 7.0 | 0.00 | 0.22 | 0.00 | 67 | 960.6 |
| 20260507180714 | 59 | 13 | 0.9 | 7.8 | 0.00 | 0.22 | 0.00 | 61 | 960.4 |
| 20260507175505 | 60 | 37 | 1.7 | 6.1 | 0.00 | 0.22 | 0.00 | 61 | 960.3 |
| 20260507175003 | 60 | 41 | 1.7 | 6.1 | 0.00 | 0.22 | 0.00 | 61 | 960.7 |
| 20260507174503 | 60 | 353 | 1.7 | 6.1 | 0.00 | 0.22 | 0.00 | 59 | 960.3 |
| 20260507174005 | 60 | 11 | 1.7 | 6.1 | 0.00 | 0.22 | 0.00 | 56 | 960.3 |
| 20260507173714 | 61 | 19 | 1.7 | 6.1 | 0.00 | 0.22 | 0.00 | 55 | 960.3 |
| 20260507173005 | 61 | 21 | 1.7 | 6.1 | 0.00 | 0.22 | 0.00 | 53 | 960.0 |
| 20260507172503 | 61 | 28 | 0.9 | 5.2 | 0.00 | 0.22 | 0.00 | 54 | 959.9 |
| 20260507172003 | 61 | 15 | 0.9 | 3.5 | 0.00 | 0.22 | 0.00 | 56 | 960.0 |
| 20260507171505 | 61 | 22 | 0.0 | 3.5 | 0.00 | 0.22 | 0.00 | 56 | 960.1 |
| 20260507171003 | 61 | 216 | 0.0 | 1.7 | 0.00 | 0.22 | 0.00 | 60 | 959.8 |
| 20260507170503 | 61 | 323 | 0.0 | 2.6 | 0.00 | 0.22 | 0.00 | 63 | 959.8 |
| 20260507165503 | 61 | 155 | 0.9 | 5.2 | 0.00 | 0.22 | 0.00 | 63 | 959.7 |
| 20260507165003 | 62 | 132 | 0.9 | 5.2 | 0.00 | 0.22 | 0.00 | 55 | 959.8 |
| 20260507164505 | 62 | 117 | 0.9 | 5.2 | 0.00 | 0.22 | 0.00 | 55 | 959.4 |
| 20260507164003 | 62 | 120 | 1.7 | 11.3 | 0.00 | 0.22 | 0.00 | 54 | 959.6 |
| 20260507163505 | 63 | 130 | 2.6 | 11.3 | 0.00 | 0.22 | 0.00 | 52 | 959.6 |
| 20260507163003 | 63 | 135 | 2.6 | 7.8 | 0.00 | 0.22 | 0.00 | 52 | 959.6 |
| 20260507162505 | 63 | 152 | 1.7 | 7.8 | 0.00 | 0.22 | 0.00 | 51 | 959.6 |
| 20260507162003 | 64 | 140 | 1.7 | 5.2 | 0.00 | 0.22 | 0.00 | 50 | 959.6 |
| 20260507161716 | 64 | 137 | 1.7 | 7.8 | 0.00 | 0.22 | 0.00 | 50 | 959.4 |
| 20260507161003 | 65 | 107 | 2.6 | 11.3 | 0.00 | 0.22 | 0.00 | 49 | 959.5 |
| 20260507160503 | 65 | 134 | 1.7 | 6.1 | 0.00 | 0.22 | 0.00 | 47 | 959.5 |
| 20260507155503 | 66 | 123 | 2.6 | 12.2 | 0.00 | 0.22 | 0.00 | 45 | 959.2 |
| 20260507155005 | 67 | 147 | 1.7 | 8.7 | 0.00 | 0.22 | 0.00 | 43 | 959.4 |
| 20260507154503 | 69 | 56 | 0.9 | 7.0 | 0.00 | 0.22 | 0.00 | 44 | 959.4 |
| 20260507154005 | 68 | 86 | 0.9 | 7.0 | 0.00 | 0.22 | 0.00 | 46 | 959.2 |
| 20260507153504 | 69 | 200 | 1.7 | 6.1 | 0.00 | 0.22 | 0.00 | 45 | 959.2 |
| 20260507153005 | 68 | 184 | 1.7 | 6.1 | 0.00 | 0.22 | 0.00 | 46 | 959.1 |
| 20260507152504 | 69 | 166 | 0.9 | 6.1 | 0.00 | 0.22 | 0.00 | 43 | 958.9 |
| 20260507152005 | 70 | 245 | 0.9 | 6.1 | 0.00 | 0.22 | 0.00 | 44 | 958.8 |
| 20260507151504 | 69 | 248 | 0.9 | 6.1 | 0.00 | 0.22 | 0.00 | 43 | 958.8 |
| 20260507151003 | 70 | 210 | 0.9 | 3.5 | 0.00 | 0.22 | 0.00 | 41 | 958.7 |
| 20260507150715 | 70 | 187 | 0.9 | 3.5 | 0.00 | 0.22 | 0.00 | 42 | 958.8 |
| 20260507145505 | 68 | 172 | 0.9 | 3.5 | 0.00 | 0.22 | 0.00 | 45 | 958.7 |
| 20260507145003 | 67 | 168 | 0.9 | 5.2 | 0.00 | 0.22 | 0.00 | 44 | 958.8 |
| 20260507144503 | 67 | 180 | 1.7 | 5.2 | 0.00 | 0.22 | 0.00 | 45 | 958.6 |
| 20260507144214 | 68 | 170 | 1.7 | 8.7 | 0.00 | 0.22 | 0.00 | 43 | 958.8 |
| 20260507143503 | 68 | 164 | 2.6 | 8.7 | 0.00 | 0.22 | 0.00 | 39 | 958.9 |
| 20260507143004 | 68 | 79 | 2.6 | 7.8 | 0.00 | 0.22 | 0.00 | 42 | 958.9 |
| 20260507142505 | 68 | 87 | 2.6 | 7.8 | 0.00 | 0.22 | 0.00 | 46 | 958.9 |
| 20260507142003 | 68 | 166 | 2.6 | 7.8 | 0.00 | 0.22 | 0.00 | 44 | 958.8 |
| 20260507141503 | 69 | 159 | 2.6 | 9.6 | 0.00 | 0.22 | 0.00 | 44 | 958.7 |
| 20260507141006 | 69 | 149 | 1.7 | 9.6 | 0.00 | 0.22 | 0.00 | 45 | 958.8 |
| 20260507140503 | 70 | 195 | 0.9 | 3.5 | 0.00 | 0.22 | 0.00 | 45 | 958.5 |
| 20260507135715 | 70 | 243 | 0.9 | 5.2 | 0.00 | 0.22 | 0.00 | 44 | 958.5 |
| 20260507135003 | 70 | 100 | 1.7 | 7.0 | 0.00 | 0.25 | 0.00 | 44 | 958.4 |
| 20260507134505 | 69 | 67 | 1.7 | 7.0 | 0.00 | 0.25 | 0.00 | 47 | 958.7 |
| 20260507134004 | 69 | 293 | 0.9 | 3.5 | 0.00 | 0.25 | 0.00 | 49 | 958.6 |
| 20260507133505 | 69 | 211 | 0.9 | 3.5 | 0.00 | 0.25 | 0.00 | 50 | 958.7 |
| 20260507133214 | 68 | 183 | 0.9 | 3.5 | 0.00 | 0.25 | 0.00 | 49 | 958.7 |
| 20260507132503 | 70 | 122 | 0.9 | 2.6 | 0.00 | 0.25 | 0.00 | 45 | 958.8 |
| 20260507132005 | 69 | 142 | 0.9 | 2.6 | 0.00 | 0.25 | 0.00 | 45 | 958.8 |
| 20260507131503 | 69 | 230 | 0.9 | 3.5 | 0.00 | 0.25 | 0.00 | 49 | 958.9 |
| 20260507131005 | 69 | 216 | 1.7 | 3.5 | 0.00 | 0.25 | 0.00 | 50 | 958.9 |
| 20260507130503 | 68 | 210 | 1.7 | 7.8 | 0.00 | 0.25 | 0.00 | 54 | 958.9 |
| 20260507125503 | 70 | 236 | 0.9 | 3.5 | 0.00 | 0.26 | 0.00 | 50 | 958.8 |
| 20260507125004 | 70 | 298 | 0.9 | 3.5 | 0.00 | 0.26 | 0.00 | 49 | 958.9 |
| 20260507124504 | 69 | 299 | 0.9 | 3.5 | 0.00 | 0.26 | 0.00 | 49 | 959.0 |
| 20260507124215 | 69 | 147 | 1.7 | 8.7 | 0.00 | 0.26 | 0.00 | 51 | 959.0 |
| 20260507123503 | 69 | 127 | 0.9 | 8.7 | 0.00 | 0.26 | 0.00 | 47 | 959.1 |
| 20260507123003 | 69 | 273 | 0.9 | 1.7 | 0.00 | 0.26 | 0.00 | 52 | 958.9 |
| 20260507122505 | 68 | 282 | 0.9 | 1.7 | 0.00 | 0.26 | 0.00 | 49 | 959.0 |
| 20260507122004 | 68 | 20 | 0.9 | 2.6 | 0.00 | 0.26 | 0.00 | 54 | 959.1 |
| 20260507121505 | 68 | 167 | 0.9 | 2.6 | 0.00 | 0.26 | 0.00 | 51 | 959.1 |
| 20260507121003 | 67 | 176 | 0.9 | 5.2 | 0.00 | 0.26 | 0.00 | 55 | 959.4 |
| 20260507120503 | 67 | 158 | 1.7 | 6.1 | 0.00 | 0.26 | 0.00 | 48 | 959.4 |
| 20260507115504 | 67 | 131 | 0.9 | 2.6 | 0.00 | 0.26 | 0.00 | 53 | 959.4 |
| 20260507115005 | 67 | 108 | 0.9 | 1.7 | 0.00 | 0.26 | 0.00 | 51 | 959.1 |
| 20260507114503 | 67 | 175 | 0.9 | 1.7 | 0.00 | 0.26 | 0.00 | 55 | 959.4 |
| 20260507114003 | 67 | 209 | 0.9 | 2.6 | 0.00 | 0.26 | 0.00 | 57 | 959.3 |
| 20260507113505 | 65 | 224 | 0.9 | 2.6 | 0.00 | 0.26 | 0.00 | 58 | 959.4 |
| 20260507113004 | 65 | 220 | 0.9 | 3.5 | 0.00 | 0.26 | 0.00 | 58 | 959.4 |
| 20260507112505 | 66 | 235 | 0.9 | 3.5 | 0.00 | 0.26 | 0.00 | 56 | 959.5 |
| 20260507112003 | 66 | 221 | 1.7 | 3.5 | 0.00 | 0.27 | 0.00 | 56 | 959.5 |
| 20260507111506 | 68 | 207 | 0.9 | 3.5 | 0.00 | 0.28 | 0.00 | 57 | 959.8 |
| 20260507111003 | 66 | 270 | 0.9 | 3.5 | 0.00 | 0.29 | 0.00 | 57 | 959.7 |
| 20260507110505 | 66 | 284 | 0.9 | 3.5 | 0.00 | 0.29 | 0.00 | 57 | 959.7 |
| 20260507105505 | 67 | 168 | 0.9 | 2.6 | 0.00 | 0.29 | 0.00 | 57 | 959.6 |
| 20260507105212 | 67 | 173 | 0.9 | 5.2 | 0.00 | 0.29 | 0.00 | 57 | 959.6 |
| 20260507104505 | 67 | 193 | 0.9 | 5.2 | 0.00 | 0.29 | 0.00 | 57 | 959.8 |
| 20260507104003 | 66 | 208 | 0.9 | 5.2 | 0.00 | 0.29 | 0.00 | 59 | 959.7 |
| 20260507103505 | 67 | 230 | 0.9 | 3.5 | 0.00 | 0.29 | 0.00 | 61 | 959.7 |
| 20260507103005 | 68 | 230 | 0.9 | 3.5 | 0.00 | 0.29 | 0.00 | 59 | 959.7 |
| 20260507102503 | 67 | 173 | 0.9 | 7.0 | 0.00 | 0.29 | 0.00 | 59 | 959.8 |
| 20260507102003 | 66 | 188 | 1.7 | 7.0 | 0.00 | 0.29 | 0.00 | 61 | 959.8 |
| 20260507101504 | 67 | 213 | 0.9 | 3.5 | 0.00 | 0.29 | 0.00 | 64 | 959.9 |
| 20260507101003 | 68 | 276 | 0.0 | 1.7 | 0.00 | 0.29 | 0.00 | 61 | 959.9 |
| 20260507100505 | 65 | 215 | 0.9 | 2.6 | 0.00 | 0.29 | 0.00 | 67 | 960.0 |
| 20260507095503 | 64 | 205 | 0.9 | 3.5 | 0.00 | 0.30 | 0.00 | 68 | 960.0 |
| 20260507095005 | 65 | 189 | 0.9 | 2.6 | 0.00 | 0.30 | 0.00 | 67 | 959.9 |
| 20260507094713 | 64 | 178 | 0.9 | 2.6 | 0.00 | 0.30 | 0.00 | 72 | 960.0 |
| 20260507094005 | 63 | 187 | 0.9 | 7.8 | 0.00 | 0.33 | 0.00 | 71 | 960.1 |
| 20260507093503 | 63 | 185 | 0.9 | 7.8 | 0.00 | 0.35 | 0.00 | 71 | 960.1 |
| 20260507093005 | 64 | 196 | 0.9 | 2.6 | 0.00 | 0.36 | 0.00 | 70 | 960.0 |
| 20260507092503 | 63 | 237 | 0.9 | 2.6 | 0.00 | 0.37 | 0.00 | 75 | 960.0 |
| 20260507092003 | 63 | 244 | 0.9 | 2.6 | 0.00 | 0.39 | 0.00 | 72 | 960.0 |
| 20260507091715 | 64 | 223 | 0.9 | 2.6 | 0.00 | 0.40 | 0.00 | 70 | 960.1 |
| 20260507091214 | 63 | 214 | 0.9 | 2.6 | 0.00 | 0.41 | 0.00 | 69 | 959.9 |
| 20260507090503 | 63 | 179 | 0.9 | 5.2 | 0.00 | 0.43 | 0.00 | 69 | 960.0 |
| 20260507085503 | 65 | 28 | 0.0 | 3.5 | 0.00 | 0.45 | 0.00 | 67 | 959.9 |
| 20260507085003 | 64 | 334 | 0.9 | 3.5 | 0.00 | 0.46 | 0.00 | 68 | 960.0 |
| 20260507084505 | 64 | 309 | 0.9 | 1.7 | 0.00 | 0.47 | 0.00 | 68 | 960.1 |
| 20260507084003 | 65 | 237 | 0.0 | 1.7 | 0.00 | 0.49 | 0.00 | 70 | 959.9 |
| 20260507083505 | 66 | 221 | 0.0 | 2.6 | 0.00 | 0.51 | 0.00 | 68 | 960.0 |
| 20260507083003 | 63 | 211 | 0.9 | 2.6 | 0.00 | 0.53 | 0.00 | 69 | 960.0 |
| 20260507082505 | 62 | 214 | 0.9 | 2.6 | 0.00 | 0.54 | 0.00 | 75 | 960.0 |
| 20260507082004 | 62 | 209 | 0.9 | 3.5 | 0.00 | 0.55 | 0.00 | 76 | 959.9 |
| 20260507081503 | 62 | 186 | 0.9 | 3.5 | 0.00 | 0.56 | 0.00 | 75 | 959.9 |
| 20260507081005 | 62 | 182 | 0.9 | 3.5 | 0.00 | 0.56 | 0.00 | 78 | 959.9 |
| 20260507080713 | 62 | 202 | 0.9 | 3.5 | 0.00 | 0.56 | 0.00 | 77 | 960.0 |
| 20260507075714 | 63 | 201 | 0.9 | 2.6 | 0.00 | 0.56 | 0.00 | 77 | 959.8 |
| 20260507075003 | 60 | 167 | 0.9 | 2.6 | 0.00 | 0.56 | 0.00 | 82 | 959.8 |
| 20260507074715 | 60 | 155 | 0.0 | 2.6 | 0.00 | 0.56 | 0.00 | 84 | 959.9 |
| 20260507074003 | 59 | 62 | 0.0 | 2.6 | 0.00 | 0.56 | 0.00 | 88 | 959.9 |
| 20260507073505 | 59 | 70 | 0.0 | 2.6 | 0.00 | 0.56 | 0.00 | 87 | 959.7 |
| 20260507073213 | 59 | 66 | 0.0 | 2.6 | 0.00 | 0.56 | 0.00 | 82 | 959.6 |
| 20260507072504 | 57 | 77 | 0.0 | 0.9 | 0.00 | 0.56 | 0.00 | 90 | 959.7 |
| 20260507072005 | 56 | 90 | 0.0 | 0.9 | 0.00 | 0.56 | 0.00 | 96 | 959.7 |
| 20260507071504 | 54 | 97 | 0.0 | 1.7 | 0.00 | 0.56 | 0.00 | 99 | 959.7 |
| 20260507071003 | 54 | 70 | 0.0 | 3.5 | 0.00 | 0.56 | 0.00 | 99 | 959.7 |
| 20260507070505 | 53 | 64 | 0.0 | 3.5 | 0.00 | 0.56 | 0.00 | 99 | 959.8 |
| 20260507065503 | 53 | 138 | 0.0 | 0.9 | 0.00 | 0.56 | 0.00 | 99 | 959.9 |
| 20260507065005 | 53 | 0 | 0.0 | 0.0 | 0.00 | 0.56 | 0.00 | 99 | 959.6 |
| 20260507064503 | 53 | 0 | 0.0 | 0.0 | 0.00 | 0.56 | 0.00 | 99 | 959.7 |
| 20260507064215 | 54 | 0 | 0.0 | 0.0 | 0.00 | 0.56 | 0.00 | 99 | 959.8 |
| 20260507063503 | 54 | 0 | 0.0 | 0.0 | 0.00 | 0.56 | 0.00 | 99 | 959.7 |
| 20260507063005 | 53 | 0 | 0.0 | 0.0 | 0.00 | 0.56 | 0.00 | 99 | 959.8 |
| 20260507062714 | 53 | 0 | 0.0 | 0.0 | 0.00 | 0.56 | 0.00 | 99 | 959.7 |
| 20260507062213 | 52 | 0 | 0.0 | 0.0 | 0.00 | 0.56 | 0.00 | 99 | 959.9 |
| 20260507061505 | 51 | 0 | 0.0 | 0.0 | 0.00 | 0.56 | 0.00 | 99 | 959.6 |
| 20260507061213 | 51 | 0 | 0.0 | 0.0 | 0.00 | 0.56 | 0.00 | 99 | 959.8 |
| 20260507060714 | 51 | 0 | 0.0 | 0.0 | 0.00 | 0.56 | 0.00 | 99 | 959.5 |
| 20260507055503 | 50 | 0 | 0.0 | 0.0 | 0.00 | 0.56 | 0.00 | 99 | 959.6 |
| 20260507055005 | 50 | 0 | 0.0 | 0.0 | 0.00 | 0.56 | 0.00 | 99 | 959.5 |
| 20260507054503 | 50 | 0 | 0.0 | 0.0 | 0.00 | 0.56 | 0.00 | 99 | 959.4 |
| 20260507054005 | 49 | 0 | 0.0 | 0.0 | 0.00 | 0.56 | 0.00 | 99 | 959.7 |
| 20260507053503 | 49 | 0 | 0.0 | 0.0 | 0.00 | 0.56 | 0.00 | 99 | 959.6 |
| 20260507053214 | 49 | 0 | 0.0 | 0.0 | 0.00 | 0.56 | 0.00 | 99 | 959.3 |
| 20260507052713 | 49 | 0 | 0.0 | 0.0 | 0.00 | 0.56 | 0.00 | 99 | 959.2 |
| 20260507052003 | 48 | 0 | 0.0 | 0.0 | 0.00 | 0.56 | 0.00 | 99 | 959.3 |
| 20260507051505 | 48 | 0 | 0.0 | 0.0 | 0.00 | 0.56 | 0.00 | 99 | 959.2 |
| 20260507050505 | 48 | 0 | 0.0 | 0.0 | 0.00 | 0.56 | 0.00 | 99 | 958.9 |
| 20260507045503 | 48 | 175 | 0.0 | 1.7 | 0.00 | 0.56 | 0.00 | 99 | 958.9 |
| 20260507045005 | 47 | 165 | 0.0 | 1.7 | 0.00 | 0.56 | 0.00 | 99 | 959.0 |
| 20260507044503 | 47 | 0 | 0.0 | 0.0 | 0.00 | 0.56 | 0.00 | 99 | 959.0 |
| 20260507044214 | 47 | 203 | 0.0 | 0.9 | 0.00 | 0.56 | 0.00 | 99 | 959.0 |
| 20260507043503 | 47 | 203 | 0.0 | 0.9 | 0.00 | 0.56 | 0.00 | 99 | 959.0 |
| 20260507043004 | 47 | 0 | 0.0 | 0.0 | 0.00 | 0.56 | 0.00 | 99 | 958.9 |
| 20260507042505 | 47 | 0 | 0.0 | 0.0 | 0.00 | 0.56 | 0.00 | 99 | 959.0 |
| 20260507042214 | 47 | 0 | 0.0 | 0.0 | 0.00 | 0.56 | 0.00 | 99 | 959.1 |
| 20260507041503 | 47 | 203 | 0.0 | 1.7 | 0.00 | 0.56 | 0.00 | 99 | 958.7 |
| 20260507041005 | 47 | 202 | 0.0 | 1.7 | 0.00 | 0.56 | 0.00 | 99 | 958.8 |
| 20260507040713 | 47 | 202 | 0.0 | 1.7 | 0.00 | 0.56 | 0.00 | 99 | 958.8 |
| 20260507035713 | 47 | 208 | 0.0 | 0.9 | 0.00 | 0.56 | 0.00 | 99 | 958.7 |
| 20260507035005 | 47 | 208 | 0.0 | 0.9 | 0.00 | 0.56 | 0.00 | 99 | 958.7 |
| 20260507034503 | 47 | 208 | 0.0 | 0.9 | 0.00 | 0.56 | 0.00 | 99 | 958.7 |
| 20260507034005 | 47 | 202 | 0.0 | 1.7 | 0.00 | 0.56 | 0.00 | 99 | 958.7 |
| 20260507033503 | 47 | 201 | 0.0 | 1.7 | 0.00 | 0.56 | 0.00 | 99 | 958.5 |
| 20260507033214 | 47 | 201 | 0.0 | 1.7 | 0.00 | 0.56 | 0.00 | 99 | 958.7 |
| 20260507032505 | 47 | 0 | 0.0 | 0.0 | 0.00 | 0.56 | 0.00 | 99 | 958.9 |
| 20260507032003 | 47 | 0 | 0.0 | 0.0 | 0.00 | 0.56 | 0.00 | 99 | 958.8 |
| 20260507031503 | 47 | 168 | 0.0 | 1.7 | 0.00 | 0.56 | 0.00 | 99 | 958.6 |
| 20260507031216 | 48 | 168 | 0.0 | 1.7 | 0.00 | 0.56 | 0.00 | 99 | 958.7 |
| 20260507030712 | 48 | 157 | 0.0 | 1.7 | 0.00 | 0.56 | 0.00 | 99 | 958.7 |
| 20260507025503 | 48 | 0 | 0.0 | 0.0 | 0.00 | 0.56 | 0.00 | 99 | 958.3 |
| 20260507025005 | 48 | 0 | 0.0 | 0.0 | 0.00 | 0.56 | 0.00 | 99 | 958.5 |
| 20260507024503 | 48 | 0 | 0.0 | 0.0 | 0.00 | 0.56 | 0.00 | 99 | 958.4 |
| 20260507024003 | 48 | 0 | 0.0 | 0.0 | 0.00 | 0.56 | 0.00 | 99 | 958.6 |
| 20260507023714 | 48 | 0 | 0.0 | 0.0 | 0.00 | 0.56 | 0.00 | 99 | 958.6 |
| 20260507023003 | 49 | 105 | 0.0 | 0.9 | 0.00 | 0.56 | 0.00 | 99 | 958.4 |
| 20260507022503 | 49 | 104 | 0.0 | 0.9 | 0.00 | 0.56 | 0.00 | 99 | 958.6 |
| 20260507022005 | 49 | 103 | 0.0 | 0.9 | 0.00 | 0.56 | 0.00 | 99 | 958.5 |
| 20260507021503 | 49 | 0 | 0.0 | 0.0 | 0.00 | 0.56 | 0.00 | 99 | 958.6 |
| 20260507021005 | 49 | 0 | 0.0 | 0.0 | 0.00 | 0.56 | 0.00 | 99 | 958.6 |
| 20260507020503 | 49 | 0 | 0.0 | 0.0 | 0.00 | 0.56 | 0.00 | 99 | 958.3 |
| 20260507015503 | 49 | 75 | 0.0 | 0.9 | 0.00 | 0.56 | 0.00 | 99 | 958.5 |
| 20260507015005 | 50 | 84 | 0.0 | 0.9 | 0.00 | 0.56 | 0.00 | 99 | 958.3 |
| 20260507014503 | 50 | 114 | 0.0 | 0.9 | 0.00 | 0.56 | 0.00 | 99 | 958.5 |
| 20260507014003 | 50 | 114 | 0.0 | 0.9 | 0.00 | 0.56 | 0.00 | 99 | 958.5 |
| 20260507013505 | 50 | 0 | 0.0 | 0.0 | 0.00 | 0.56 | 0.00 | 99 | 958.2 |
| 20260507013003 | 50 | 210 | 0.0 | 0.9 | 0.00 | 0.56 | 0.00 | 99 | 958.7 |
| 20260507012503 | 50 | 210 | 0.0 | 0.9 | 0.00 | 0.56 | 0.00 | 99 | 958.5 |
| 20260507012005 | 50 | 0 | 0.0 | 0.0 | 0.00 | 0.56 | 0.00 | 99 | 958.4 |
| 20260507011503 | 50 | 210 | 0.0 | 1.7 | 0.00 | 0.56 | 0.00 | 99 | 958.4 |
| 20260507011005 | 50 | 199 | 0.9 | 2.6 | 0.00 | 0.56 | 0.00 | 99 | 958.5 |
| 20260507010503 | 50 | 184 | 0.0 | 2.6 | 0.00 | 0.56 | 0.00 | 99 | 958.5 |
| 20260507005503 | 51 | 0 | 0.0 | 0.0 | 0.00 | 0.56 | 0.00 | 99 | 958.4 |
| 20260507005005 | 51 | 150 | 0.0 | 0.9 | 0.00 | 0.56 | 0.00 | 99 | 958.4 |
| 20260507004503 | 51 | 171 | 0.0 | 1.7 | 0.00 | 0.56 | 0.00 | 99 | 958.4 |
| 20260507004213 | 51 | 179 | 0.0 | 1.7 | 0.00 | 0.56 | 0.00 | 99 | 958.3 |
| 20260507003505 | 51 | 149 | 0.9 | 2.6 | 0.00 | 0.56 | 0.00 | 99 | 958.6 |
| 20260507003213 | 51 | 154 | 0.9 | 2.6 | 0.00 | 0.56 | 0.00 | 98 | 958.4 |
| 20260507002714 | 51 | 119 | 0.9 | 2.6 | 0.00 | 0.56 | 0.00 | 98 | 958.5 |
| 20260507002005 | 52 | 112 | 0.9 | 6.1 | 0.00 | 0.56 | 0.00 | 98 | 958.6 |
| 20260507001503 | 51 | 116 | 0.0 | 2.6 | 0.00 | 0.56 | 0.00 | 98 | 958.6 |
| 20260507001214 | 51 | 126 | 0.0 | 1.7 | 0.00 | 0.56 | 0.00 | 99 | 958.4 |
| 20260507000503 | 52 | 130 | 0.0 | 1.7 | 0.00 | 0.56 | 0.00 | 98 | 958.4 |
| 20260506235504 | 52 | 150 | 0.0 | 1.7 | 0.00 | 0.56 | 0.00 | 98 | 958.7 |
| 20260506235004 | 52 | 145 | 0.9 | 5.2 | 0.00 | 0.56 | 0.00 | 97 | 958.7 |
| 20260506234505 | 52 | 153 | 0.9 | 5.2 | 0.00 | 0.56 | 0.00 | 97 | 958.6 |
| 20260506234003 | 52 | 156 | 0.9 | 3.5 | 0.00 | 0.56 | 0.00 | 98 | 958.5 |
| 20260506233503 | 52 | 146 | 0.0 | 1.7 | 0.00 | 0.56 | 0.00 | 98 | 958.6 |
| 20260506233005 | 52 | 103 | 0.0 | 1.7 | 0.00 | 0.56 | 0.00 | 98 | 958.6 |
| 20260506232503 | 52 | 105 | 0.0 | 1.7 | 0.00 | 0.56 | 0.00 | 97 | 958.5 |
| 20260506232005 | 52 | 142 | 0.0 | 2.6 | 0.00 | 0.56 | 0.00 | 97 | 958.7 |
| 20260506231503 | 52 | 144 | 0.0 | 2.6 | 0.00 | 0.56 | 0.00 | 97 | 958.7 |
| 20260506231004 | 52 | 124 | 0.0 | 1.7 | 0.00 | 0.56 | 0.00 | 97 | 959.0 |
| 20260506230503 | 52 | 141 | 0.9 | 2.6 | 0.00 | 0.56 | 0.00 | 97 | 958.7 |
| 20260506225503 | 52 | 169 | 0.0 | 1.7 | 0.00 | 0.56 | 0.56 | 98 | 958.7 |
| 20260506225216 | 52 | 118 | 0.0 | 2.6 | 0.00 | 0.56 | 0.56 | 99 | 958.7 |
| 20260506224713 | 52 | 127 | 0.0 | 2.6 | 0.00 | 0.56 | 0.56 | 99 | 958.7 |
| 20260506224214 | 52 | 153 | 0.0 | 2.6 | 0.00 | 0.56 | 0.56 | 99 | 958.9 |
| 20260506223505 | 52 | 166 | 0.0 | 1.7 | 0.00 | 0.56 | 0.56 | 99 | 958.9 |
| 20260506223003 | 52 | 177 | 0.0 | 1.7 | 0.00 | 0.56 | 0.56 | 99 | 958.8 |
| 20260506222505 | 52 | 184 | 0.0 | 1.7 | 0.00 | 0.56 | 0.56 | 99 | 959.0 |
| 20260506222214 | 52 | 184 | 0.0 | 1.7 | 0.00 | 0.56 | 0.56 | 99 | 959.0 |
| 20260506221504 | 52 | 180 | 0.0 | 0.9 | 0.00 | 0.56 | 0.56 | 99 | 958.8 |
| 20260506221005 | 52 | 189 | 0.0 | 0.9 | 0.00 | 0.56 | 0.56 | 99 | 958.8 |
| 20260506220503 | 52 | 0 | 0.0 | 0.0 | 0.00 | 0.56 | 0.56 | 99 | 958.8 |
| 20260506215503 | 52 | 58 | 0.0 | 1.7 | 0.00 | 0.56 | 0.56 | 99 | 958.7 |
| 20260506215006 | 52 | 62 | 0.0 | 1.7 | 0.00 | 0.56 | 0.56 | 99 | 958.5 |
| 20260506214713 | 51 | 217 | 0.0 | 0.9 | 0.00 | 0.56 | 0.56 | 99 | 958.9 |
| 20260506214005 | 52 | 217 | 0.0 | 0.9 | 0.00 | 0.56 | 0.56 | 99 | 958.5 |